createdAt,value
2022-11-29T00:01:14.616Z,3.31
2022-11-29T00:03:40.958Z,3.28
2022-11-29T00:06:08.639Z,3.23
2022-11-29T00:08:36.233Z,3.25
2022-11-29T00:11:10.692Z,3.32
2022-11-29T00:13:37.410Z,3.29
2022-11-29T00:16:05.862Z,3.33
2022-11-29T00:18:32.731Z,3.27
2022-11-29T00:20:59.074Z,3.29
2022-11-29T00:23:25.800Z,3.28
2022-11-29T00:25:52.806Z,3.25
2022-11-29T00:28:19.150Z,3.27
2022-11-29T00:30:45.512Z,3.28
2022-11-29T00:33:11.821Z,3.26
2022-11-29T00:35:38.107Z,3.25
2022-11-29T00:38:04.398Z,3.27
2022-11-29T00:40:30.691Z,3.22
2022-11-29T00:42:57.094Z,3.26
2022-11-29T00:45:23.385Z,3.28
2022-11-29T00:47:49.667Z,3.26
2022-11-29T00:50:16.049Z,3.23
2022-11-29T00:52:42.348Z,3.18
2022-11-29T00:55:09.105Z,3.20
2022-11-29T00:57:35.399Z,3.12
2022-11-29T01:00:01.708Z,3.15
2022-11-29T01:02:28.057Z,3.14
2022-11-29T01:04:54.387Z,3.20
2022-11-29T01:07:20.748Z,3.19
2022-11-29T01:09:47.073Z,3.15
2022-11-29T01:12:13.370Z,3.17
2022-11-29T01:14:39.798Z,3.16
2022-11-29T01:17:06.144Z,3.17
2022-11-29T01:19:32.536Z,3.17
2022-11-29T01:21:58.898Z,3.14
2022-11-29T01:24:25.213Z,3.15
2022-11-29T01:26:51.497Z,3.15
2022-11-29T01:29:17.813Z,3.13
2022-11-29T01:31:44.115Z,3.14
2022-11-29T01:34:10.672Z,3.10
2022-11-29T01:36:37.018Z,3.04
2022-11-29T01:39:04.907Z,3.02
2022-11-29T01:41:33.651Z,3.07
2022-11-29T01:44:04.238Z,3.06
2022-11-29T01:46:42.687Z,2.99
2022-11-29T01:49:14.763Z,3.03
2022-11-29T01:51:45.852Z,2.93
2022-11-29T01:54:13.757Z,2.87
2022-11-29T01:56:41.514Z,2.87
2022-11-29T01:59:11.125Z,2.92
2022-11-29T02:01:38.138Z,2.92
2022-11-29T02:04:04.715Z,2.95
2022-11-29T02:06:31.416Z,2.93
2022-11-29T02:08:57.925Z,2.93
2022-11-29T02:12:09.145Z,2.94
2022-11-29T02:15:00.244Z,2.95
2022-11-29T02:17:43.981Z,2.92
2022-11-29T02:20:25.487Z,2.91
2022-11-29T02:23:05.847Z,2.88
2022-11-29T02:25:46.588Z,2.91
2022-11-29T02:28:30.163Z,2.86
2022-11-29T02:31:31.780Z,2.93
2022-11-29T02:34:28.438Z,2.80
2022-11-29T02:37:22.444Z,2.82
2022-11-29T02:39:57.166Z,2.83
2022-11-29T02:42:55.662Z,2.86
2022-11-29T02:45:56.296Z,2.85
2022-11-29T02:48:49.600Z,2.87
2022-11-29T02:51:33.607Z,2.90
2022-11-29T02:54:41.274Z,2.87
2022-11-29T02:57:21.467Z,2.86
2022-11-29T02:59:53.728Z,2.88
2022-11-29T03:02:29.485Z,2.87
2022-11-29T03:04:58.833Z,2.82
2022-11-29T03:07:30.556Z,2.88
2022-11-29T03:10:24.800Z,2.85
2022-11-29T03:12:53.871Z,2.74
2022-11-29T03:15:41.358Z,2.76
2022-11-29T03:18:22.254Z,2.80
2022-11-29T03:20:58.339Z,2.78
2022-11-29T03:23:32.469Z,2.84
2022-11-29T03:26:10.724Z,2.76
2022-11-29T03:28:55.832Z,2.77
2022-11-29T03:31:35.801Z,2.86
2022-11-29T03:34:12.774Z,2.89
2022-11-29T03:36:45.431Z,2.84
2022-11-29T03:39:19.198Z,2.88
2022-11-29T03:42:12.622Z,2.90
2022-11-29T03:45:05.620Z,2.84
2022-11-29T03:47:40.575Z,2.85
2022-11-29T03:50:14.940Z,2.79
2022-11-29T03:52:55.288Z,2.74
2022-11-29T03:55:21.517Z,2.70
2022-11-29T03:58:21.724Z,2.78
2022-11-29T04:00:47.934Z,2.82
2022-11-29T04:03:34.039Z,2.73
2022-11-29T04:06:23.901Z,2.79
2022-11-29T04:09:10.119Z,2.71
2022-11-29T04:11:58.857Z,2.69
2022-11-29T04:14:54.420Z,2.64
2022-11-29T04:17:58.457Z,2.71
2022-11-29T04:21:05.509Z,2.71
2022-11-29T04:23:52.145Z,2.78
2022-11-29T04:26:44.815Z,2.65
2022-11-29T04:29:53.755Z,2.72
2022-11-29T04:32:39.533Z,2.73
2022-11-29T04:35:51.511Z,2.79
2022-11-29T04:38:39.805Z,2.74
2022-11-29T04:41:23.667Z,2.66
2022-11-29T04:44:21.213Z,2.66
2022-11-29T04:47:27.603Z,2.71
2022-11-29T04:50:26.990Z,2.68
2022-11-29T04:53:34.940Z,2.73
2022-11-29T04:56:06.335Z,2.74
2022-11-29T04:58:41.775Z,2.73
2022-11-29T05:01:43.286Z,2.74
2022-11-29T05:04:40.035Z,2.74
2022-11-29T05:07:17.416Z,2.70
2022-11-29T05:10:24.990Z,2.77
2022-11-29T05:13:13.541Z,2.74
2022-11-29T05:16:02.994Z,2.66
2022-11-29T05:19:04.069Z,2.67
2022-11-29T05:21:57.581Z,2.77
2022-11-29T05:24:42.989Z,2.77
2022-11-29T05:27:22.988Z,2.74
2022-11-29T05:30:04.114Z,2.67
2022-11-29T05:32:35.899Z,2.70
2022-11-29T05:35:13.665Z,2.69
2022-11-29T05:37:52.452Z,2.61
2022-11-29T05:40:33.976Z,2.63
2022-11-29T05:43:23.868Z,2.64
2022-11-29T05:46:16.299Z,2.64
2022-11-29T05:49:24.143Z,2.68
2022-11-29T05:52:05.382Z,2.60
2022-11-29T05:54:40.569Z,2.64
2022-11-29T05:57:24.835Z,2.63
2022-11-29T05:59:51.745Z,2.69
2022-11-29T06:02:34.733Z,2.64
2022-11-29T06:05:13.525Z,2.51
2022-11-29T06:07:51.467Z,2.58
2022-11-29T06:10:21.157Z,2.62
2022-11-29T06:13:32.158Z,2.64
2022-11-29T06:16:07.402Z,2.58
2022-11-29T06:18:53.678Z,2.52
2022-11-29T06:21:42.729Z,2.55
2022-11-29T06:24:29.682Z,2.49
2022-11-29T06:27:07.706Z,2.50
2022-11-29T06:29:33.988Z,2.53
2022-11-29T06:32:11.708Z,2.52
2022-11-29T06:34:59.583Z,2.59
2022-11-29T06:37:50.364Z,2.61
2022-11-29T06:40:17.338Z,2.60
2022-11-29T06:42:43.839Z,2.62
2022-11-29T06:45:13.638Z,2.57
2022-11-29T06:47:46.459Z,2.55
2022-11-29T06:50:40.849Z,2.65
2022-11-29T06:53:14.110Z,2.59
2022-11-29T06:56:05.089Z,2.62
2022-11-29T06:58:59.916Z,2.68
2022-11-29T07:01:36.856Z,2.71
2022-11-29T07:04:20.026Z,2.71
2022-11-29T07:06:46.654Z,2.68
2022-11-29T07:09:16.373Z,2.66
2022-11-29T07:11:43.681Z,2.69
2022-11-29T07:14:10.731Z,2.71
2022-11-29T07:16:47.300Z,2.64
2022-11-29T07:19:35.100Z,2.66
2022-11-29T07:22:24.352Z,2.68
2022-11-29T07:25:09.151Z,2.55
2022-11-29T07:27:49.153Z,2.59
2022-11-29T07:30:54.823Z,2.70
2022-11-29T07:33:34.188Z,2.68
2022-11-29T07:36:14.417Z,2.70
2022-11-29T07:39:08.756Z,2.73
2022-11-29T07:41:39.941Z,2.77
2022-11-29T07:44:18.458Z,2.73
2022-11-29T07:46:44.842Z,2.75
2022-11-29T07:49:11.509Z,2.76
2022-11-29T07:51:37.983Z,2.73
2022-11-29T07:54:05.300Z,2.64
2022-11-29T07:56:31.644Z,2.62
2022-11-29T07:58:57.977Z,2.69
2022-11-29T08:01:24.374Z,2.73
2022-11-29T08:03:50.692Z,2.79
2022-11-29T08:06:24.119Z,2.82
2022-11-29T08:08:50.393Z,2.71
2022-11-29T08:11:16.667Z,2.63
2022-11-29T08:13:42.973Z,2.72
2022-11-29T08:16:09.344Z,2.83
2022-11-29T08:18:38.846Z,2.77
2022-11-29T08:21:07.184Z,2.76
2022-11-29T08:23:33.479Z,2.76
2022-11-29T08:26:01.228Z,2.73
2022-11-29T08:28:27.744Z,2.80
2022-11-29T08:31:01.790Z,2.85
2022-11-29T08:33:29.018Z,2.87
2022-11-29T08:35:55.732Z,2.88
2022-11-29T08:38:22.643Z,2.88
2022-11-29T08:40:49.083Z,2.96
2022-11-29T08:43:15.365Z,2.96
2022-11-29T08:45:41.717Z,3.01
2022-11-29T08:48:08.128Z,3.00
2022-11-29T08:50:34.508Z,2.96
2022-11-29T08:53:19.294Z,2.99
2022-11-29T08:55:46.557Z,3.15
2022-11-29T08:58:15.037Z,3.16
2022-11-29T09:00:43.834Z,3.15
2022-11-29T09:03:29.075Z,3.06
2022-11-29T09:05:55.537Z,3.09
2022-11-29T09:08:21.946Z,3.14
2022-11-29T09:10:49.140Z,3.11
2022-11-29T09:13:15.703Z,3.14
2022-11-29T09:15:43.438Z,3.20
2022-11-29T09:18:10.237Z,3.17
2022-11-29T09:20:36.801Z,3.12
2022-11-29T09:23:03.550Z,3.22
2022-11-29T09:25:30.137Z,3.24
2022-11-29T09:27:58.238Z,3.30
2022-11-29T09:30:24.645Z,3.33
2022-11-29T09:32:50.929Z,3.26
2022-11-29T09:35:17.390Z,3.26
2022-11-29T09:37:43.736Z,3.29
2022-11-29T09:40:24.814Z,3.29
2022-11-29T09:43:00.517Z,3.32
2022-11-29T09:45:31.985Z,3.33
2022-11-29T09:48:25.704Z,3.40
2022-11-29T09:51:13.813Z,3.47
2022-11-29T09:53:50.878Z,3.50
2022-11-29T09:56:34.197Z,3.58
2022-11-29T09:59:11.732Z,3.40
2022-11-29T10:01:42.868Z,3.44
2022-11-29T10:04:15.990Z,3.56
2022-11-29T10:06:49.421Z,3.43
2022-11-29T10:09:32.248Z,3.44
2022-11-29T10:12:12.558Z,3.44
2022-11-29T10:14:57.315Z,3.53
2022-11-29T10:17:44.819Z,3.51
2022-11-29T10:20:24.124Z,3.56
2022-11-29T10:23:06.712Z,3.46
2022-11-29T10:25:45.116Z,3.29
2022-11-29T10:28:18.362Z,3.36
2022-11-29T10:30:46.160Z,3.40
2022-11-29T10:33:26.795Z,3.37
2022-11-29T10:35:58.074Z,3.39
2022-11-29T10:38:32.051Z,3.40
2022-11-29T10:41:09.138Z,3.40
2022-11-29T10:43:37.318Z,3.29
2022-11-29T10:46:05.831Z,3.33
2022-11-29T10:48:33.983Z,3.29
2022-11-29T10:51:01.210Z,3.35
2022-11-29T10:53:31.965Z,3.31
2022-11-29T10:56:08.889Z,3.31
2022-11-29T10:58:35.712Z,3.39
2022-11-29T11:01:07.562Z,3.39
2022-11-29T11:03:54.954Z,3.41
2022-11-29T11:06:28.401Z,3.37
2022-11-29T11:08:57.454Z,3.39
2022-11-29T11:11:33.601Z,3.51
2022-11-29T11:14:04.661Z,3.49
2022-11-29T11:16:35.722Z,3.50
2022-11-29T11:19:33.829Z,3.51
2022-11-29T11:22:02.577Z,3.59
2022-11-29T11:24:31.694Z,3.57
2022-11-29T11:26:59.228Z,3.50
2022-11-29T11:29:31.325Z,3.53
2022-11-29T11:31:59.814Z,3.52
2022-11-29T11:34:37.363Z,3.53
2022-11-29T11:37:16.288Z,3.59
2022-11-29T11:39:43.746Z,3.55
2022-11-29T11:42:34.977Z,3.54
2022-11-29T11:45:03.200Z,3.64
2022-11-29T11:47:32.497Z,3.70
2022-11-29T11:50:04.636Z,3.59
2022-11-29T11:52:39.657Z,3.61
2022-11-29T11:55:22.545Z,3.49
2022-11-29T11:58:10.328Z,3.57
2022-11-29T12:01:04.076Z,3.54
2022-11-29T12:03:52.575Z,3.53
2022-11-29T12:06:40.874Z,3.49
2022-11-29T12:09:31.326Z,3.55
2022-11-29T12:12:23.518Z,3.45
2022-11-29T12:15:07.143Z,3.42
2022-11-29T12:17:58.415Z,3.35
2022-11-29T12:20:33.644Z,3.37
2022-11-29T12:23:09.308Z,3.40
2022-11-29T12:25:56.189Z,3.36
2022-11-29T12:28:28.790Z,3.37
2022-11-29T12:31:12.258Z,3.47
2022-11-29T12:33:47.580Z,3.54
2022-11-29T12:36:35.322Z,3.53
2022-11-29T12:39:31.624Z,3.60
2022-11-29T12:42:07.047Z,3.56
2022-11-29T12:44:42.994Z,3.66
2022-11-29T12:47:37.904Z,3.59
2022-11-29T12:50:28.241Z,3.56
2022-11-29T12:53:12.291Z,3.58
2022-11-29T12:56:15.885Z,3.51
2022-11-29T12:59:13.208Z,3.50
2022-11-29T13:01:57.765Z,3.52
2022-11-29T13:04:59.936Z,3.64
2022-11-29T13:07:33.360Z,3.74
2022-11-29T13:10:18.854Z,3.76
2022-11-29T13:12:53.772Z,3.67
2022-11-29T13:15:23.174Z,3.64
2022-11-29T13:18:00.187Z,3.67
2022-11-29T13:20:46.882Z,3.72
2022-11-29T13:24:00.703Z,3.77
2022-11-29T13:26:27.232Z,3.68
2022-11-29T13:28:54.329Z,3.71
2022-11-29T13:31:23.670Z,3.74
2022-11-29T13:34:18.383Z,3.74
2022-11-29T13:37:12.538Z,3.75
2022-11-29T13:39:57.922Z,3.77
2022-11-29T13:42:45.201Z,3.76
2022-11-29T13:45:23.679Z,3.75
2022-11-29T13:47:55.702Z,3.76
2022-11-29T13:50:45.868Z,3.71
2022-11-29T13:53:21.579Z,3.66
2022-11-29T13:56:02.159Z,3.68
2022-11-29T13:58:28.476Z,3.68
2022-11-29T14:01:01.181Z,3.72
2022-11-29T14:03:32.412Z,3.75
2022-11-29T14:06:01.754Z,3.76
2022-11-29T14:08:48.067Z,3.70
2022-11-29T14:11:24.431Z,3.71
2022-11-29T14:14:03.381Z,3.74
2022-11-29T14:16:45.637Z,3.68
2022-11-29T14:19:21.364Z,3.65
2022-11-29T14:22:02.933Z,3.63
2022-11-29T14:24:32.280Z,3.61
2022-11-29T14:27:08.739Z,3.65
2022-11-29T14:29:47.417Z,3.65
2022-11-29T14:32:24.347Z,3.61
2022-11-29T14:35:10.895Z,3.68
2022-11-29T14:38:02.489Z,3.68
2022-11-29T14:40:41.198Z,3.63
2022-11-29T14:43:28.513Z,3.74
2022-11-29T14:46:08.461Z,3.79
2022-11-29T14:48:35.650Z,3.70
2022-11-29T14:51:09.804Z,3.65
2022-11-29T14:53:37.627Z,3.73
2022-11-29T14:56:43.587Z,3.74
2022-11-29T14:59:47.517Z,3.77
2022-11-29T15:02:19.916Z,3.76
2022-11-29T15:04:48.751Z,3.71
2022-11-29T15:07:30.272Z,3.65
2022-11-29T15:10:02.967Z,3.71
2022-11-29T15:12:35.671Z,3.69
2022-11-29T15:15:20.691Z,3.60
2022-11-29T15:18:14.191Z,3.60
2022-11-29T15:21:20.973Z,3.63
2022-11-29T15:23:47.280Z,3.62
2022-11-29T15:26:19.327Z,3.64
2022-11-29T15:28:45.788Z,3.60
2022-11-29T15:31:19.948Z,3.61
2022-11-29T15:33:48.541Z,3.61
2022-11-29T15:36:21.874Z,3.65
2022-11-29T15:38:53.990Z,3.61
2022-11-29T15:41:27.837Z,3.63
2022-11-29T15:44:05.623Z,3.63
2022-11-29T15:46:34.382Z,3.64
2022-11-29T15:49:27.336Z,3.61
2022-11-29T15:51:59.951Z,3.51
2022-11-29T15:54:37.346Z,3.53
2022-11-29T15:57:12.534Z,3.60
2022-11-29T16:00:01.517Z,3.60
2022-11-29T16:02:38.161Z,3.67
2022-11-29T16:05:36.829Z,3.61
2022-11-29T16:08:06.974Z,3.56
2022-11-29T16:10:43.642Z,3.61
2022-11-29T16:13:24.979Z,3.58
2022-11-29T16:16:08.814Z,3.64
2022-11-29T16:18:36.816Z,3.65
2022-11-29T16:21:06.025Z,3.69
2022-11-29T16:23:42.051Z,3.58
2022-11-29T16:26:16.671Z,3.60
2022-11-29T16:28:45.872Z,3.63
2022-11-29T16:31:20.196Z,3.58
2022-11-29T16:33:48.957Z,3.63
2022-11-29T16:36:22.550Z,3.66
2022-11-29T16:38:52.433Z,3.64
2022-11-29T16:41:33.968Z,3.65
2022-11-29T16:44:03.171Z,3.70
2022-11-29T16:46:35.119Z,3.61
2022-11-29T16:49:23.281Z,3.64
2022-11-29T16:51:51.411Z,3.72
2022-11-29T16:54:26.069Z,3.68
2022-11-29T16:56:53.617Z,3.65
2022-11-29T16:59:26.465Z,3.70
2022-11-29T17:01:55.875Z,3.77
2022-11-29T17:04:23.992Z,3.77
2022-11-29T17:06:52.176Z,3.69
2022-11-29T17:09:27.665Z,3.73
2022-11-29T17:11:54.719Z,3.69
2022-11-29T17:14:21.496Z,3.65
2022-11-29T17:16:51.605Z,3.59
2022-11-29T17:19:19.634Z,3.56
2022-11-29T17:21:45.951Z,3.55
2022-11-29T17:24:15.528Z,3.58
2022-11-29T17:26:42.956Z,3.61
2022-11-29T17:29:13.974Z,3.63
2022-11-29T17:31:42.359Z,3.58
2022-11-29T17:34:08.766Z,3.59
2022-11-29T17:36:35.261Z,3.53
2022-11-29T17:39:04.182Z,3.57
2022-11-29T17:41:30.747Z,3.53
2022-11-29T17:43:57.732Z,3.48
2022-11-29T17:46:28.460Z,3.46
2022-11-29T17:48:55.375Z,3.53
2022-11-29T17:54:10.889Z,3.56
2022-11-29T17:56:37.232Z,3.58
2022-11-29T17:59:05.025Z,3.60
2022-11-29T18:01:33.551Z,3.65
2022-11-29T18:04:02.561Z,3.62
2022-11-29T18:06:35.739Z,3.57
2022-11-29T18:09:03.744Z,3.65
2022-11-29T18:11:49.951Z,3.56
2022-11-29T18:14:23.198Z,3.51
2022-11-29T18:16:50.107Z,3.53
2022-11-29T18:19:18.946Z,3.55
2022-11-29T18:21:45.771Z,3.60
2022-11-29T18:24:12.566Z,3.69
2022-11-29T18:26:39.714Z,3.59
2022-11-29T18:29:07.249Z,3.59
2022-11-29T18:31:35.994Z,3.56
2022-11-29T18:34:06.972Z,3.52
2022-11-29T18:36:35.995Z,3.59
2022-11-29T18:39:06.292Z,3.60
2022-11-29T18:41:33.194Z,3.58
2022-11-29T18:44:05.242Z,3.62
2022-11-29T18:46:32.704Z,3.58
2022-11-29T18:49:00.865Z,3.55
2022-11-29T18:51:28.947Z,3.54
2022-11-29T18:53:55.775Z,3.49
2022-11-29T18:56:24.410Z,3.56
2022-11-29T18:58:58.609Z,3.53
2022-11-29T19:01:28.009Z,3.49
2022-11-29T19:03:57.343Z,3.59
2022-11-29T19:06:27.681Z,3.59
2022-11-29T19:08:54.566Z,3.65
2022-11-29T19:11:22.725Z,3.58
2022-11-29T19:13:56.086Z,3.56
2022-11-29T19:16:24.238Z,3.50
2022-11-29T19:18:52.975Z,3.53
2022-11-29T19:21:21.071Z,3.55
2022-11-29T19:23:53.305Z,3.48
2022-11-29T19:26:20.791Z,3.46
2022-11-29T19:28:47.405Z,3.45
2022-11-29T19:31:15.347Z,3.52
2022-11-29T19:33:44.610Z,3.40
2022-11-29T19:36:16.877Z,3.46
2022-11-29T19:38:46.573Z,3.41
2022-11-29T19:41:25.446Z,3.42
2022-11-29T19:43:52.737Z,3.42
2022-11-29T19:46:21.401Z,3.49
2022-11-29T19:48:48.109Z,3.49
2022-11-29T19:51:18.918Z,3.48
2022-11-29T19:53:46.811Z,3.51
2022-11-29T19:56:15.405Z,3.47
2022-11-29T19:58:42.882Z,3.53
2022-11-29T20:01:12.174Z,3.51
2022-11-29T20:03:39.382Z,3.57
2022-11-29T20:06:06.477Z,3.61
2022-11-29T20:08:33.049Z,3.68
2022-11-29T20:11:14.436Z,3.59
2022-11-29T20:13:42.837Z,3.55
2022-11-29T20:16:12.319Z,3.59
2022-11-29T20:18:43.517Z,3.59
2022-11-29T20:21:15.442Z,3.57
2022-11-29T20:23:42.940Z,3.58
2022-11-29T20:26:15.356Z,3.60
2022-11-29T20:28:42.821Z,3.51
2022-11-29T20:31:12.750Z,3.47
2022-11-29T20:33:41.006Z,3.47
2022-11-29T20:36:16.115Z,3.46
2022-11-29T20:39:03.112Z,3.46
2022-11-29T20:42:11.335Z,3.43
2022-11-29T20:44:46.954Z,3.40
2022-11-29T20:47:19.176Z,3.38
2022-11-29T20:49:46.349Z,3.41
2022-11-29T20:52:31.250Z,3.29
2022-11-29T20:54:57.560Z,3.36
2022-11-29T20:57:23.858Z,3.36
2022-11-29T20:59:50.237Z,3.44
2022-11-29T21:02:16.622Z,3.47
2022-11-29T21:04:43.023Z,3.44
2022-11-29T21:07:09.349Z,3.39
2022-11-29T21:09:35.656Z,3.38
2022-11-29T21:12:02.358Z,3.40
2022-11-29T21:14:29.043Z,3.46
2022-11-29T21:16:55.662Z,3.37
2022-11-29T21:19:25.270Z,3.41
2022-11-29T21:22:38.108Z,3.36
2022-11-29T21:25:17.666Z,3.37
2022-11-29T21:27:44.348Z,3.38
2022-11-29T21:30:19.149Z,3.34
2022-11-29T21:32:46.013Z,3.37
2022-11-29T21:35:13.218Z,3.35
2022-11-29T21:37:40.620Z,3.32
2022-11-29T21:40:07.683Z,3.31
2022-11-29T21:42:33.973Z,3.36
2022-11-29T21:45:00.314Z,3.41
2022-11-29T21:47:26.680Z,3.37
2022-11-29T21:49:54.511Z,3.28
2022-11-29T21:52:22.524Z,3.32
2022-11-29T21:54:49.580Z,3.36
2022-11-29T21:57:15.992Z,3.35
2022-11-29T21:59:42.295Z,3.35
2022-11-29T22:02:08.721Z,3.32
2022-11-29T22:04:35.133Z,3.34
2022-11-29T22:07:01.465Z,3.35
2022-11-29T22:09:27.765Z,3.32
2022-11-29T22:11:54.110Z,3.22
2022-11-29T22:14:20.464Z,3.25
2022-11-29T22:16:52.566Z,3.30
2022-11-29T22:19:22.660Z,3.31
2022-11-29T22:21:54.294Z,3.33
2022-11-29T22:24:23.005Z,3.37
2022-11-29T22:26:51.003Z,3.38
2022-11-29T22:29:17.529Z,3.32
2022-11-29T22:31:46.874Z,3.42
2022-11-29T22:34:13.474Z,3.50
2022-11-29T22:36:40.198Z,3.50
2022-11-29T22:39:07.380Z,3.49
2022-11-29T22:41:35.190Z,3.55
2022-11-29T22:44:02.704Z,3.47
2022-11-29T22:46:29.546Z,3.48
2022-11-29T22:48:58.174Z,3.41
2022-11-29T22:51:27.173Z,3.38
2022-11-29T22:53:54.895Z,3.43
2022-11-29T22:56:22.746Z,3.47
2022-11-29T22:58:49.248Z,3.47
2022-11-29T23:01:20.403Z,3.41
2022-11-29T23:03:53.588Z,3.32
2022-11-29T23:06:25.836Z,3.18
2022-11-29T23:08:54.355Z,3.24
2022-11-29T23:11:26.996Z,3.29
2022-11-29T23:13:54.168Z,3.30
2022-11-29T23:16:27.322Z,3.25
2022-11-29T23:18:54.885Z,3.26
2022-11-29T23:21:23.880Z,3.25
2022-11-29T23:23:56.105Z,3.30
2022-11-29T23:26:40.370Z,3.31
2022-11-29T23:29:09.642Z,3.40
2022-11-29T23:31:36.042Z,3.40
2022-11-29T23:34:33.656Z,3.39
2022-11-29T23:36:59.926Z,3.39
2022-11-29T23:39:26.227Z,3.37
2022-11-29T23:41:52.546Z,3.48
2022-11-29T23:44:18.852Z,3.43
2022-11-29T23:46:45.207Z,3.47
2022-11-29T23:49:11.576Z,3.28
2022-11-29T23:51:37.866Z,3.29
2022-11-29T23:54:04.251Z,3.36
2022-11-29T23:56:35.015Z,3.38
2022-11-29T23:59:01.900Z,3.42
